White Bluff, TN

9:46 AM CDT on June 02, 2015 (GMT -0500)
Smyrna | | Change Station
CLOSE
Current Station
Airport
Location: Smyrna,
Elevation: 545 ft
Nearby Weather Stations

Elev 545 ft 36.01 °N, 86.52 °W | Updated 50 minutes ago

Overcast
Overcast
62 °F
Feels Like 62 °F
N
8
Wind Variable Wind from North

Today
High -- | Low -- °F
--% Chance of Precip.
Yesterday
High -- | Low -- °F
Precip. -- in
5:32 AM 8:01 PM
Full, 100% visible
Pressure 30.14 in
Visibility 10.0 miles
Clouds Overcast 800 ft
Dew Point 59 °F
Humidity 90%
Rainfall 0.00 in
Snow Depth Not available.
UV 2 out of 12
Pollen 5.00 out of 12
Air Quality Not available.
Flu Activity Sporadic
METAR KMQY 021356Z 36007KT 10SM OVC008 17/15 A3012 RMK AO2 T01660150 SLP205

More Conditions Fewer Conditions

Pressure 30.14 in
Visibility 10.0 miles
Clouds Overcast 800 ft
Dew Point 59 °F
Humidity 90%
Rainfall 0.00 in
Snow Depth Not available.
UV 2 out of 12
Pollen 5.00 out of 12
Air Quality Not available.
Flu Activity Sporadic
METAR KMQY 021356Z 36007KT 10SM OVC008 17/15 A3012 RMK AO2 T01660150 SLP205

More Conditions Fewer Conditions

10-Day Weather Forecast

Almanac

Astronomy

Jun. 02, 2015 Rise Set
Actual Time
Civil Twilight
Nautical Twilight
Astronomical Twilight
Moon
Length of Visible Light
Length of Day
Tomorrow will be .
, % of the Moon is Illuminated

Today's Extremes

State Highs State Lows

Community

WunderPhotos

Upload Photos

1,825,931 photos uploaded!

WunderBlogs® & News

Nearby

Air Quality

  Air Quality AQ Index Pollutant
Not available.

Snow Depth

Station Depth Elevation

Earthquake Activity

City Distance Mag. Time & Date
Minimum magnitude displayed is 2.5.

Coastal Water Temperatures

Place Temperature

Stations

Nearby Weather Stations

Station Location Temp. Windchill Dew Point Humidity Wind Precip. Elev Updated Type